Time;durP1;ratioP1;P1;durP2;ratioP2;P2;SDS_P1;SDS_P2;PMS_P1;PMS_P2;Temp;Humidity;BMP_temperature;BMP_pressure;BME280_temperature;BME280_humidity;BME280_pressure;Samples;Min_cycle;Max_cycle;Signal;HPM_P1;HPM_P2
2022/07/21 00:00:25;;;;;;;4.10;2.38;;;;;;;;;;4922628;29;20113;-48
2022/07/21 00:02:52;;;;;;;4.13;2.53;;;;;;;;;;4922257;29;20039;-43
2022/07/21 00:05:18;;;;;;;2.80;2.50;;;;;;;;;;4922603;29;20080;-46
2022/07/21 00:07:44;;;;;;;6.80;2.80;;;;;;;;;;4922645;29;20031;-46
2022/07/21 00:10:10;;;;;;;4.90;2.60;;;;;;;;;;4922591;29;20029;-44
2022/07/21 00:12:36;;;;;;;3.78;2.42;;;;;;;;;;4922137;29;20111;-46
2022/07/21 00:15:04;;;;;;;9.43;2.72;;;;;;;;;;4922269;29;20032;-44
2022/07/21 00:17:29;;;;;;;4.22;2.40;;;;;;;;;;4922504;29;20036;-46
2022/07/21 00:19:55;;;;;;;6.60;2.95;;;;;;;;;;4922290;29;20562;-47
2022/07/21 00:22:20;;;;;;;7.65;2.92;;;;;;;;;;4922420;29;20039;-46
2022/07/21 00:24:46;;;;;;;10.18;2.75;;;;;;;;;;4922198;29;20457;-46
2022/07/21 00:27:11;;;;;;;4.25;2.58;;;;;;;;;;4922422;29;20031;-47
2022/07/21 00:29:36;;;;;;;4.05;2.42;;;;;;;;;;4922266;29;20043;-48
2022/07/21 00:32:03;;;;;;;5.07;2.67;;;;;;;;;;4922319;29;20044;-43
2022/07/21 00:34:29;;;;;;;13.13;2.70;;;;;;;;;;4922411;29;20060;-43
2022/07/21 00:36:54;;;;;;;6.40;2.60;;;;;;;;;;4922338;29;20032;-46
2022/07/21 00:39:20;;;;;;;10.77;2.65;;;;;;;;;;4922105;29;20493;-43
2022/07/21 00:41:45;;;;;;;10.93;2.75;;;;;;;;;;4922018;29;20048;-44
2022/07/21 00:44:26;;;;;;;7.45;3.10;;;;;;;;;;4921983;29;20051;-46
2022/07/21 00:46:53;;;;;;;7.88;2.95;;;;;;;;;;4921738;29;20373;-45
2022/07/21 00:49:19;;;;;;;9.20;2.78;;;;;;;;;;4922037;29;20536;-45
2022/07/21 00:51:45;;;;;;;7.05;2.63;;;;;;;;;;4922195;29;20032;-47
2022/07/21 00:54:12;;;;;;;8.63;2.78;;;;;;;;;;4922191;29;20036;-45
2022/07/21 00:56:38;;;;;;;6.70;3.10;;;;;;;;;;4922180;29;20118;-49
2022/07/21 00:59:03;;;;;;;4.00;2.60;;;;;;;;;;4922225;29;20036;-49
2022/07/21 01:01:29;;;;;;;6.80;2.90;;;;;;;;;;4921761;29;20039;-47
2022/07/21 01:03:54;;;;;;;10.75;2.90;;;;;;;;;;4922080;29;20028;-47
2022/07/21 01:06:20;;;;;;;6.50;2.88;;;;;;;;;;4921766;29;20096;-45
2022/07/21 01:08:46;;;;;;;7.65;3.17;;;;;;;;;;4918199;29;20040;-48
2022/07/21 01:11:12;;;;;;;6.78;3.63;;;;;;;;;;4918990;29;20388;-46
2022/07/21 01:13:41;;;;;;;2.60;2.38;;;;;;;;;;4918760;29;20028;-45
2022/07/21 01:16:08;;;;;;;11.48;3.20;;;;;;;;;;4918965;29;20051;-46
2022/07/21 01:18:33;;;;;;;5.18;2.70;;;;;;;;;;4918898;29;20028;-46
2022/07/21 01:21:03;;;;;;;9.75;2.95;;;;;;;;;;4918877;29;20430;-43
2022/07/21 01:23:29;;;;;;;5.50;2.70;;;;;;;;;;4918875;29;20092;-42
2022/07/21 01:25:55;;;;;;;4.18;2.85;;;;;;;;;;4918566;29;20477;-46
2022/07/21 01:28:20;;;;;;;6.30;2.70;;;;;;;;;;4918749;29;20032;-46
2022/07/21 01:30:45;;;;;;;9.88;3.58;;;;;;;;;;4918434;29;20067;-47
2022/07/21 01:33:11;;;;;;;5.88;2.95;;;;;;;;;;4918557;29;20075;-44
2022/07/21 01:35:36;;;;;;;7.07;2.90;;;;;;;;;;4918455;29;20032;-46
2022/07/21 01:38:02;;;;;;;3.92;2.90;;;;;;;;;;4918590;29;20067;-47
2022/07/21 01:43:12;;;;;;;4.43;2.92;;;;;;;;;;4918595;29;20512;-43
2022/07/21 01:45:37;;;;;;;7.63;2.70;;;;;;;;;;4918748;29;20052;-47
2022/07/21 01:48:05;;;;;;;4.53;2.47;;;;;;;;;;4918005;29;20433;-47
2022/07/21 01:50:30;;;;;;;9.93;2.90;;;;;;;;;;4918401;29;20035;-49
2022/07/21 01:52:57;;;;;;;5.18;3.08;;;;;;;;;;4918064;29;20032;-46
2022/07/21 01:55:24;;;;;;;10.48;2.80;;;;;;;;;;4918070;29;20417;-44
2022/07/21 01:57:50;;;;;;;7.55;3.20;;;;;;;;;;4917984;29;20140;-46
2022/07/21 02:00:15;;;;;;;9.60;2.80;;;;;;;;;;4918264;29;20050;-45
2022/07/21 02:02:41;;;;;;;4.10;3.10;;;;;;;;;;4918126;29;20115;-48
2022/07/21 02:05:07;;;;;;;8.00;3.10;;;;;;;;;;4918155;29;20107;-44
2022/07/21 02:07:32;;;;;;;7.90;3.13;;;;;;;;;;4918149;29;20028;-47
2022/07/21 02:09:57;;;;;;;8.38;2.85;;;;;;;;;;4917756;29;20096;-49
2022/07/21 02:12:23;;;;;;;3.97;3.05;;;;;;;;;;4917947;29;20119;-47
2022/07/21 02:14:49;;;;;;;7.55;3.55;;;;;;;;;;4917739;29;20477;-47
2022/07/21 02:17:14;;;;;;;7.03;3.05;;;;;;;;;;4917604;29;20035;-44
2022/07/21 02:19:39;;;;;;;4.82;3.25;;;;;;;;;;4917515;29;20035;-50
2022/07/21 02:22:05;;;;;;;6.03;2.95;;;;;;;;;;4917838;29;20024;-42
2022/07/21 02:24:30;;;;;;;10.00;3.17;;;;;;;;;;4917843;29;20063;-43
2022/07/21 02:26:56;;;;;;;7.13;2.80;;;;;;;;;;4917473;29;20492;-46
2022/07/21 02:29:21;;;;;;;8.55;2.92;;;;;;;;;;4918066;29;20028;-48
2022/07/21 02:31:47;;;;;;;3.88;2.88;;;;;;;;;;4916120;29;20064;-46
2022/07/21 02:34:12;;;;;;;7.85;3.00;;;;;;;;;;4917645;29;20039;-44
2022/07/21 02:36:38;;;;;;;6.63;3.10;;;;;;;;;;4917574;29;20035;-42
2022/07/21 02:39:04;;;;;;;3.28;2.97;;;;;;;;;;4917555;29;20031;-46
2022/07/21 02:41:29;;;;;;;3.97;2.88;;;;;;;;;;4917192;29;20039;-48
2022/07/21 02:43:54;;;;;;;8.20;3.10;;;;;;;;;;4917459;29;20080;-46
2022/07/21 02:46:20;;;;;;;5.70;2.65;;;;;;;;;;4916949;29;20095;-45
2022/07/21 02:48:45;;;;;;;4.68;2.92;;;;;;;;;;4917465;29;20031;-44
2022/07/21 02:51:10;;;;;;;5.93;3.05;;;;;;;;;;4917231;29;20118;-48
2022/07/21 02:53:36;;;;;;;6.35;3.13;;;;;;;;;;4917025;29;20032;-48
2022/07/21 02:56:01;;;;;;;4.65;2.90;;;;;;;;;;4917529;29;20032;-48
2022/07/21 02:58:29;;;;;;;5.93;2.80;;;;;;;;;;4917270;29;20377;-47
2022/07/21 03:00:55;;;;;;;5.05;2.60;;;;;;;;;;4916840;29;20057;-45
2022/07/21 03:03:23;;;;;;;11.75;3.35;;;;;;;;;;4917183;29;20047;-47
2022/07/21 03:05:49;;;;;;;7.47;3.20;;;;;;;;;;4917087;29;20075;-45
2022/07/21 03:08:15;;;;;;;9.02;4.18;;;;;;;;;;4916766;29;20454;-46
2022/07/21 03:10:41;;;;;;;6.03;3.80;;;;;;;;;;4917005;29;20044;-46
2022/07/21 03:13:07;;;;;;;8.25;3.40;;;;;;;;;;4916894;29;20068;-45
2022/07/21 03:15:33;;;;;;;4.03;3.05;;;;;;;;;;4916682;29;20031;-47
2022/07/21 03:17:59;;;;;;;11.52;3.20;;;;;;;;;;4916925;29;20028;-43
2022/07/21 03:20:26;;;;;;;12.02;3.75;;;;;;;;;;4916523;29;20552;-45
2022/07/21 03:22:52;;;;;;;6.13;3.17;;;;;;;;;;4916841;29;20039;-45
2022/07/21 03:25:18;;;;;;;13.57;3.70;;;;;;;;;;4915253;29;20396;-49
2022/07/21 03:27:44;;;;;;;13.02;4.03;;;;;;;;;;4916485;29;20036;-42
2022/07/21 03:30:11;;;;;;;10.93;3.38;;;;;;;;;;4915977;29;20064;-47
2022/07/21 03:32:37;;;;;;;4.60;2.83;;;;;;;;;;4916648;29;20083;-44
2022/07/21 03:35:04;;;;;;;4.05;2.70;;;;;;;;;;4916344;29;20031;-42
2022/07/21 03:37:29;;;;;;;9.57;3.00;;;;;;;;;;4916620;29;20020;-47
2022/07/21 03:39:55;;;;;;;13.00;3.55;;;;;;;;;;4916552;29;20370;-43
2022/07/21 03:42:20;;;;;;;27.27;3.53;;;;;;;;;;4916597;29;20516;-45
2022/07/21 03:44:46;;;;;;;39.53;5.20;;;;;;;;;;4916529;29;20103;-46
2022/07/21 03:47:11;;;;;;;36.45;3.83;;;;;;;;;;4916182;29;20539;-45
2022/07/21 03:49:37;;;;;;;29.45;4.13;;;;;;;;;;4916208;29;20028;-46
2022/07/21 03:52:02;;;;;;;28.55;3.95;;;;;;;;;;4916087;29;20036;-46
2022/07/21 03:54:28;;;;;;;12.15;3.33;;;;;;;;;;4916709;29;20071;-46
2022/07/21 03:56:53;;;;;;;15.52;3.45;;;;;;;;;;4916255;29;20034;-44
2022/07/21 03:59:19;;;;;;;29.58;4.85;;;;;;;;;;4916336;29;20032;-47
2022/07/21 04:01:44;;;;;;;23.30;3.60;;;;;;;;;;4916382;29;20470;-42
2022/07/21 04:04:10;;;;;;;10.30;4.25;;;;;;;;;;4916009;29;20029;-47
2022/07/21 04:06:35;;;;;;;8.52;3.22;;;;;;;;;;4916390;29;20039;-44
2022/07/21 04:09:01;;;;;;;18.67;3.72;;;;;;;;;;4916093;29;20052;-47
2022/07/21 04:11:27;;;;;;;13.90;3.70;;;;;;;;;;4915878;29;20031;-47
2022/07/21 04:13:52;;;;;;;13.93;4.25;;;;;;;;;;4915003;29;20021;-46
2022/07/21 04:16:18;;;;;;;16.63;4.35;;;;;;;;;;4915946;29;20104;-48
2022/07/21 04:18:43;;;;;;;10.70;3.13;;;;;;;;;;4915901;29;20060;-46
2022/07/21 04:21:08;;;;;;;9.63;3.45;;;;;;;;;;4916202;29;20040;-47
2022/07/21 04:23:34;;;;;;;13.35;3.70;;;;;;;;;;4915839;29;20110;-46
2022/07/21 04:25:59;;;;;;;14.18;4.72;;;;;;;;;;4916192;29;20068;-48
2022/07/21 04:28:25;;;;;;;9.18;3.42;;;;;;;;;;4914669;29;20386;-47
2022/07/21 04:30:50;;;;;;;15.35;4.00;;;;;;;;;;4916017;29;20028;-44
2022/07/21 04:33:15;;;;;;;16.45;3.70;;;;;;;;;;4915734;29;20517;-45
2022/07/21 04:35:41;;;;;;;13.00;4.10;;;;;;;;;;4916054;29;20039;-48
2022/07/21 04:38:09;;;;;;;14.35;3.20;;;;;;;;;;4915709;29;20528;-45
2022/07/21 04:40:35;;;;;;;12.18;3.13;;;;;;;;;;4916058;29;20086;-44
2022/07/21 04:43:00;;;;;;;13.93;3.03;;;;;;;;;;4917472;29;20432;-45
2022/07/21 04:45:26;;;;;;;12.52;3.13;;;;;;;;;;4919280;29;20032;-47
2022/07/21 04:47:54;;;;;;;10.65;3.03;;;;;;;;;;4919000;29;20084;-42
2022/07/21 04:50:22;;;;;;;12.07;2.78;;;;;;;;;;4919457;29;20081;-46
2022/07/21 04:52:48;;;;;;;12.43;2.95;;;;;;;;;;4919308;29;20079;-45
2022/07/21 04:55:14;;;;;;;15.57;2.40;;;;;;;;;;4919425;29;20422;-46
2022/07/21 04:57:43;;;;;;;29.65;4.53;;;;;;;;;;4919332;29;20028;-46
2022/07/21 05:00:11;;;;;;;6.25;2.33;;;;;;;;;;4919065;29;20032;-45
2022/07/21 05:02:37;;;;;;;8.00;2.40;;;;;;;;;;4919279;29;20107;-49
2022/07/21 05:05:03;;;;;;;7.30;2.63;;;;;;;;;;4919054;29;20103;-49
2022/07/21 05:07:29;;;;;;;8.25;2.42;;;;;;;;;;4919066;29;20032;-47
2022/07/21 05:09:54;;;;;;;11.85;2.50;;;;;;;;;;4918526;29;20027;-47
2022/07/21 05:12:20;;;;;;;6.63;2.28;;;;;;;;;;4916734;29;20043;-43
2022/07/21 05:14:45;;;;;;;6.90;2.80;;;;;;;;;;4919082;29;20028;-47
2022/07/21 05:17:10;;;;;;;7.28;3.03;;;;;;;;;;4918718;29;20389;-48
2022/07/21 05:19:36;;;;;;;10.93;2.70;;;;;;;;;;4919000;29;20036;-48
2022/07/21 05:22:01;;;;;;;9.82;2.88;;;;;;;;;;4918552;29;20032;-48
2022/07/21 05:24:27;;;;;;;10.43;2.97;;;;;;;;;;4918561;29;20068;-44
2022/07/21 05:26:52;;;;;;;4.70;2.63;;;;;;;;;;4918592;29;20111;-46
2022/07/21 05:29:17;;;;;;;9.77;2.90;;;;;;;;;;4918808;29;20119;-49
2022/07/21 05:31:43;;;;;;;9.88;2.65;;;;;;;;;;4918352;29;20428;-49
2022/07/21 05:34:09;;;;;;;5.85;2.60;;;;;;;;;;4918197;29;20035;-46
2022/07/21 05:36:34;;;;;;;73.80;5.90;;;;;;;;;;4917066;29;20032;-44
2022/07/21 05:39:00;;;;;;;100.20;7.55;;;;;;;;;;4917316;29;20496;-46
2022/07/21 05:41:25;;;;;;;6.80;3.00;;;;;;;;;;4917539;29;20036;-46
2022/07/21 05:43:51;;;;;;;5.20;2.40;;;;;;;;;;4916307;29;20119;-44
2022/07/21 05:46:16;;;;;;;7.88;2.80;;;;;;;;;;4917051;29;20039;-46
2022/07/21 05:48:41;;;;;;;9.38;2.78;;;;;;;;;;4917561;29;20034;-47
2022/07/21 05:51:07;;;;;;;5.18;2.63;;;;;;;;;;4917235;29;20059;-43
2022/07/21 05:53:33;;;;;;;6.68;2.70;;;;;;;;;;4912505;29;20055;-45
2022/07/21 05:55:58;;;;;;;4.45;2.55;;;;;;;;;;4918176;29;20079;-45
2022/07/21 05:58:24;;;;;;;10.75;3.47;;;;;;;;;;4918285;29;20046;-49
2022/07/21 06:01:08;;;;;;;10.77;2.42;;;;;;;;;;4916595;29;20080;-50
2022/07/21 06:03:35;;;;;;;9.05;2.20;;;;;;;;;;4918304;29;20024;-49
2022/07/21 06:06:01;;;;;;;7.85;2.53;;;;;;;;;;4918390;29;20032;-49
2022/07/21 06:08:27;;;;;;;7.97;2.72;;;;;;;;;;4918036;29;20465;-44
2022/07/21 06:10:52;;;;;;;10.77;2.80;;;;;;;;;;4917472;29;20036;-47
2022/07/21 06:13:17;;;;;;;5.57;2.42;;;;;;;;;;4917295;29;20029;-47
2022/07/21 06:15:43;;;;;;;9.52;2.63;;;;;;;;;;4917362;29;20038;-46
2022/07/21 06:18:08;;;;;;;5.68;2.50;;;;;;;;;;4917885;29;20032;-50
2022/07/21 06:20:34;;;;;;;9.90;2.75;;;;;;;;;;4917410;29;20075;-44
2022/07/21 06:22:59;;;;;;;10.40;3.00;;;;;;;;;;4917556;29;20032;-48
2022/07/21 06:25:24;;;;;;;8.55;2.88;;;;;;;;;;4917776;29;20035;-47
2022/07/21 06:27:50;;;;;;;10.10;2.75;;;;;;;;;;4917698;29;20024;-49
2022/07/21 06:30:15;;;;;;;4.82;2.53;;;;;;;;;;4917675;29;20024;-49
2022/07/21 06:32:41;;;;;;;6.75;2.60;;;;;;;;;;4917280;29;20055;-46
2022/07/21 06:35:06;;;;;;;3.33;2.80;;;;;;;;;;4917486;29;20064;-45
2022/07/21 06:37:32;;;;;;;6.78;2.80;;;;;;;;;;4917441;29;20132;-44
2022/07/21 06:39:57;;;;;;;4.13;2.90;;;;;;;;;;4917296;29;20031;-46
2022/07/21 06:42:23;;;;;;;8.30;3.08;;;;;;;;;;4916250;29;20091;-42
2022/07/21 06:44:48;;;;;;;12.60;2.90;;;;;;;;;;4917119;29;20103;-43
2022/07/21 06:47:14;;;;;;;5.90;2.70;;;;;;;;;;4917057;29;20404;-45
2022/07/21 06:49:39;;;;;;;5.47;2.90;;;;;;;;;;4916334;29;20171;-48
2022/07/21 06:52:05;;;;;;;9.18;2.80;;;;;;;;;;4916877;29;20032;-45
2022/07/21 06:54:30;;;;;;;8.38;2.90;;;;;;;;;;4917216;29;20020;-44
2022/07/21 06:56:55;;;;;;;8.20;2.67;;;;;;;;;;4916939;29;20028;-45
2022/07/21 06:59:21;;;;;;;4.53;2.70;;;;;;;;;;4917152;29;20044;-43
2022/07/21 07:01:46;;;;;;;6.35;2.92;;;;;;;;;;4916850;29;20083;-45
2022/07/21 07:04:12;;;;;;;5.57;3.15;;;;;;;;;;4916675;29;20071;-44
2022/07/21 07:06:37;;;;;;;13.98;3.67;;;;;;;;;;4916387;29;20028;-43
2022/07/21 07:09:02;;;;;;;7.85;2.90;;;;;;;;;;4916678;29;20067;-44
2022/07/21 07:11:28;;;;;;;7.15;2.85;;;;;;;;;;4916717;29;20032;-42
2022/07/21 07:13:53;;;;;;;8.93;2.70;;;;;;;;;;4916702;29;20024;-46
2022/07/21 07:16:19;;;;;;;5.88;2.70;;;;;;;;;;4916673;29;20124;-45
2022/07/21 07:18:44;;;;;;;2.67;2.33;;;;;;;;;;4916555;29;20103;-47
2022/07/21 07:21:10;;;;;;;7.55;3.03;;;;;;;;;;4916805;29;20039;-43
2022/07/21 07:23:35;;;;;;;6.18;2.63;;;;;;;;;;4916715;29;20028;-42
2022/07/21 07:26:00;;;;;;;7.82;2.97;;;;;;;;;;4915898;29;20040;-40
2022/07/21 07:28:26;;;;;;;9.70;3.92;;;;;;;;;;4916446;29;20028;-44
2022/07/21 07:30:51;;;;;;;6.80;2.72;;;;;;;;;;4916377;29;20032;-42
2022/07/21 07:33:17;;;;;;;2.88;2.15;;;;;;;;;;4915047;29;20094;-44
2022/07/21 07:35:42;;;;;;;6.35;2.88;;;;;;;;;;4916593;29;20056;-47
2022/07/21 07:38:13;;;;;;;5.80;2.83;;;;;;;;;;4916348;29;20489;-47
2022/07/21 07:40:38;;;;;;;6.22;2.78;;;;;;;;;;4916614;29;20107;-45
2022/07/21 07:43:03;;;;;;;2.40;2.20;;;;;;;;;;4916518;29;20476;-41
2022/07/21 07:45:29;;;;;;;3.25;2.35;;;;;;;;;;4916431;29;20039;-42
2022/07/21 07:47:54;;;;;;;5.72;3.03;;;;;;;;;;4916007;29;20142;-44
2022/07/21 07:50:22;;;;;;;5.97;2.60;;;;;;;;;;4916467;29;20032;-49
2022/07/21 07:52:47;;;;;;;12.55;2.92;;;;;;;;;;4915490;29;20036;-41
2022/07/21 07:55:13;;;;;;;5.00;2.47;;;;;;;;;;4914938;29;20038;-42
2022/07/21 07:57:40;;;;;;;4.72;2.38;;;;;;;;;;4914891;29;20036;-44
2022/07/21 08:00:09;;;;;;;3.65;2.50;;;;;;;;;;4914897;29;20487;-48
2022/07/21 08:02:35;;;;;;;6.70;2.42;;;;;;;;;;4914822;29;20133;-44
2022/07/21 08:05:00;;;;;;;7.10;2.90;;;;;;;;;;4914625;29;20032;-46
2022/07/21 08:07:26;;;;;;;4.22;2.70;;;;;;;;;;4914496;29;20032;-45
2022/07/21 08:09:51;;;;;;;5.35;2.50;;;;;;;;;;4913116;29;20419;-49
2022/07/21 08:12:16;;;;;;;5.07;2.53;;;;;;;;;;4913514;29;20028;-48
2022/07/21 08:14:42;;;;;;;7.45;2.85;;;;;;;;;;4914556;29;20160;-47
2022/07/21 08:17:07;;;;;;;5.93;2.70;;;;;;;;;;4916379;29;20495;-46
2022/07/21 08:19:33;;;;;;;4.15;2.55;;;;;;;;;;4918258;29;20024;-46
2022/07/21 08:21:59;;;;;;;4.57;2.50;;;;;;;;;;4918495;29;20751;-43
2022/07/21 08:24:24;;;;;;;5.63;2.60;;;;;;;;;;4918333;29;20080;-45
2022/07/21 08:26:50;;;;;;;3.15;2.30;;;;;;;;;;4918452;29;20385;-47
2022/07/21 08:29:15;;;;;;;3.95;2.88;;;;;;;;;;4917963;29;20119;-48
2022/07/21 08:31:40;;;;;;;5.10;2.63;;;;;;;;;;4918013;29;20044;-45
2022/07/21 08:34:06;;;;;;;3.40;2.85;;;;;;;;;;4917966;29;20063;-46
2022/07/21 08:36:31;;;;;;;5.90;2.70;;;;;;;;;;4918154;29;20488;-44
2022/07/21 08:38:56;;;;;;;5.20;2.47;;;;;;;;;;4917836;29;20028;-44
2022/07/21 08:41:22;;;;;;;11.02;2.67;;;;;;;;;;4918099;29;20090;-46
2022/07/21 08:43:49;;;;;;;7.22;2.85;;;;;;;;;;4917500;29;20036;-45
2022/07/21 08:46:16;;;;;;;4.25;2.40;;;;;;;;;;4916346;29;20043;-41
2022/07/21 08:48:42;;;;;;;6.18;2.60;;;;;;;;;;4917315;29;20055;-43
2022/07/21 08:51:07;;;;;;;8.45;2.20;;;;;;;;;;4917447;29;20052;-48
2022/07/21 08:53:33;;;;;;;8.90;3.22;;;;;;;;;;4900563;29;20051;-43
2022/07/21 08:55:58;;;;;;;8.75;3.33;;;;;;;;;;4917885;29;20486;-47
2022/07/21 08:58:24;;;;;;;7.47;3.30;;;;;;;;;;4916126;29;20708;-45
2022/07/21 09:00:50;;;;;;;11.60;2.72;;;;;;;;;;4918534;29;20042;-46
2022/07/21 09:03:20;;;;;;;5.13;2.55;;;;;;;;;;4918940;29;20060;-44
2022/07/21 09:05:58;;;;;;;4.40;2.70;;;;;;;;;;4918846;29;20028;-45
2022/07/21 09:08:58;;;;;;;10.13;2.88;;;;;;;;;;4918867;29;20056;-43
2022/07/21 09:11:26;;;;;;;4.57;2.38;;;;;;;;;;4917636;29;20052;-46
2022/07/21 09:14:09;;;;;;;7.75;2.60;;;;;;;;;;4919095;29;20038;-47
2022/07/21 09:16:44;;;;;;;6.85;2.40;;;;;;;;;;4919052;29;20046;-44
2022/07/21 09:19:18;;;;;;;6.20;2.20;;;;;;;;;;4916962;29;20400;-44
2022/07/21 09:21:44;;;;;;;4.47;2.40;;;;;;;;;;4918991;29;20028;-40
2022/07/21 09:24:12;;;;;;;5.50;2.20;;;;;;;;;;4918770;29;20051;-43
2022/07/21 09:26:56;;;;;;;4.15;2.45;;;;;;;;;;4918436;29;20472;-48
2022/07/21 09:29:21;;;;;;;8.02;2.80;;;;;;;;;;4917865;29;20040;-47
2022/07/21 09:31:47;;;;;;;6.10;2.70;;;;;;;;;;4918393;29;20036;-44
2022/07/21 09:34:14;;;;;;;5.10;2.13;;;;;;;;;;4918378;29;20035;-40
2022/07/21 09:36:54;;;;;;;3.38;2.28;;;;;;;;;;4918928;29;20039;-46
2022/07/21 09:39:42;;;;;;;2.78;2.45;;;;;;;;;;4918678;29;20094;-45
2022/07/21 09:42:16;;;;;;;3.15;2.42;;;;;;;;;;4918382;29;20028;-43
2022/07/21 09:44:55;;;;;;;2.28;2.08;;;;;;;;;;4918329;29;20425;-45
2022/07/21 09:47:21;;;;;;;;;;;;;;;;;;4918692;29;20477;-47
2022/07/21 09:49:48;;;;;;;5.22;2.30;;;;;;;;;;4918052;29;19929;-47
2022/07/21 09:52:35;;;;;;;5.35;2.58;;;;;;;;;;4917992;29;20119;-46
2022/07/21 09:55:05;;;;;;;2.80;2.20;;;;;;;;;;4918405;29;20035;-45
2022/07/21 09:57:32;;;;;;;3.92;2.35;;;;;;;;;;4917877;29;20392;-43
2022/07/21 09:59:57;;;;;;;4.15;2.50;;;;;;;;;;4918218;29;20036;-46
2022/07/21 10:02:28;;;;;;;5.35;2.90;;;;;;;;;;4918231;29;20059;-44
2022/07/21 10:05:06;;;;;;;2.80;2.50;;;;;;;;;;4918326;29;20052;-49
2022/07/21 10:07:37;;;;;;;6.82;3.15;;;;;;;;;;4917901;29;20039;-42
2022/07/21 10:10:03;;;;;;;2.50;2.30;;;;;;;;;;4917505;29;20584;-42
2022/07/21 10:12:28;;;;;;;3.78;2.50;;;;;;;;;;4917454;29;20043;-44
2022/07/21 10:14:54;;;;;;;3.83;2.00;;;;;;;;;;4918028;29;20119;-45
2022/07/21 10:17:22;;;;;;;6.85;2.50;;;;;;;;;;4917646;29;20392;-44
2022/07/21 10:20:08;;;;;;;6.40;2.28;;;;;;;;;;4917942;29;20034;-47
2022/07/21 10:23:02;;;;;;;3.17;2.05;;;;;;;;;;4917558;29;20034;-48
2022/07/21 10:25:28;;;;;;;4.28;2.10;;;;;;;;;;4917863;29;20417;-42
2022/07/21 10:28:13;;;;;;;3.20;2.50;;;;;;;;;;4917865;29;20039;-44
2022/07/21 10:30:47;;;;;;;3.25;2.20;;;;;;;;;;4917374;29;20096;-42
2022/07/21 10:33:14;;;;;;;5.45;2.40;;;;;;;;;;4916953;29;20028;-44
2022/07/21 10:35:43;;;;;;;4.65;2.50;;;;;;;;;;4917732;29;20022;-41
2022/07/21 10:38:33;;;;;;;4.65;2.13;;;;;;;;;;4917456;29;20028;-44
2022/07/21 10:41:01;;;;;;;5.78;2.42;;;;;;;;;;4915955;29;20042;-42
2022/07/21 10:43:26;;;;;;;2.50;2.22;;;;;;;;;;4916984;29;20408;-44
2022/07/21 10:45:54;;;;;;;2.88;2.33;;;;;;;;;;4917438;29;20115;-46
2022/07/21 10:48:37;;;;;;;2.70;2.50;;;;;;;;;;4917444;29;20381;-48
2022/07/21 10:51:14;;;;;;;6.20;2.30;;;;;;;;;;4916887;29;20048;-43
2022/07/21 10:53:40;;;;;;;3.90;2.63;;;;;;;;;;4916602;29;20028;-40
2022/07/21 10:56:07;;;;;;;6.50;2.58;;;;;;;;;;4917010;29;20426;-44
2022/07/21 10:58:37;;;;;;;5.22;2.42;;;;;;;;;;4916873;29;20084;-41
2022/07/21 11:01:15;;;;;;;5.07;2.55;;;;;;;;;;4917475;29;20040;-44
2022/07/21 11:03:42;;;;;;;5.00;2.60;;;;;;;;;;4916926;29;20028;-43
2022/07/21 11:06:22;;;;;;;5.88;2.20;;;;;;;;;;4916990;29;20103;-40
2022/07/21 11:09:05;;;;;;;4.35;2.63;;;;;;;;;;4916809;29;20103;-46
2022/07/21 11:11:32;;;;;;;3.47;2.38;;;;;;;;;;4916673;29;20031;-42
2022/07/21 11:14:01;;;;;;;3.25;2.45;;;;;;;;;;4916608;29;20087;-42
2022/07/21 11:16:41;;;;;;;10.82;2.88;;;;;;;;;;4916875;29;20039;-44
2022/07/21 11:19:30;;;;;;;8.45;2.75;;;;;;;;;;4916515;29;20294;-48
2022/07/21 11:21:58;;;;;;;6.95;2.92;;;;;;;;;;4915993;29;20555;-44
2022/07/21 11:24:25;;;;;;;2.70;2.25;;;;;;;;;;4916813;29;20036;-45
2022/07/21 11:26:54;;;;;;;2.95;2.22;;;;;;;;;;4916473;29;20024;-44
2022/07/21 11:29:20;;;;;;;7.55;2.53;;;;;;;;;;4916078;29;20024;-46
2022/07/21 11:31:46;;;;;;;4.72;2.17;;;;;;;;;;4915309;29;20114;-44
2022/07/21 11:34:12;;;;;;;14.60;3.05;;;;;;;;;;4916576;29;20215;-46
2022/07/21 11:36:38;;;;;;;5.85;2.30;;;;;;;;;;4916383;29;20111;-46
2022/07/21 11:39:15;;;;;;;4.85;2.03;;;;;;;;;;4915987;29;20036;-45
2022/07/21 11:41:41;;;;;;;3.33;2.10;;;;;;;;;;4916255;29;20028;-45
2022/07/21 11:44:09;;;;;;;3.70;2.20;;;;;;;;;;4916448;29;20028;-47
2022/07/21 11:46:46;;;;;;;2.30;2.10;;;;;;;;;;4916086;29;20028;-46
2022/07/21 11:49:12;;;;;;;3.58;2.67;;;;;;;;;;4916086;29;20040;-48
2022/07/21 11:51:37;;;;;;;3.90;2.00;;;;;;;;;;4915961;29;20107;-46
2022/07/21 11:54:03;;;;;;;2.58;1.98;;;;;;;;;;4915206;29;20035;-42
2022/07/21 11:56:36;;;;;;;2.90;2.15;;;;;;;;;;4915722;29;20539;-45
2022/07/21 11:59:09;;;;;;;5.75;2.47;;;;;;;;;;4916105;29;20401;-44
2022/07/21 12:01:56;;;;;;;3.40;2.22;;;;;;;;;;4915936;29;20548;-42
2022/07/21 12:04:34;;;;;;;3.38;2.20;;;;;;;;;;4914894;29;20408;-43
2022/07/21 12:07:01;;;;;;;5.32;1.88;;;;;;;;;;4916119;29;20544;-48
2022/07/21 12:09:27;;;;;;;3.05;2.45;;;;;;;;;;4916048;29;20109;-44
2022/07/21 12:11:53;;;;;;;2.97;2.35;;;;;;;;;;4915899;29;20115;-47
2022/07/21 12:14:19;;;;;;;9.50;2.90;;;;;;;;;;4916325;29;20414;-46
2022/07/21 12:16:49;;;;;;;4.07;2.30;;;;;;;;;;4916180;29;20028;-46
2022/07/21 12:19:17;;;;;;;4.03;3.20;;;;;;;;;;4915972;29;20016;-48
2022/07/21 12:21:44;;;;;;;2.15;1.98;;;;;;;;;;4915902;29;20040;-44
2022/07/21 12:24:10;;;;;;;7.72;2.65;;;;;;;;;;4915844;29;20032;-45
2022/07/21 12:26:35;;;;;;;4.53;2.30;;;;;;;;;;4916130;29;20028;-47
2022/07/21 12:29:01;;;;;;;3.20;2.28;;;;;;;;;;4914984;29;20059;-45
2022/07/21 12:31:26;;;;;;;5.55;2.33;;;;;;;;;;4915947;29;20440;-42
2022/07/21 12:33:55;;;;;;;3.20;2.53;;;;;;;;;;4915844;29;20060;-45
2022/07/21 12:36:21;;;;;;;;;;;;;;;;;;4916255;29;20032;-44
2022/07/21 12:38:49;;;;;;;3.47;2.20;;;;;;;;;;4914585;29;19970;-43
2022/07/21 12:41:19;;;;;;;2.92;2.30;;;;;;;;;;4915715;29;20510;-46
2022/07/21 12:43:59;;;;;;;3.60;2.30;;;;;;;;;;4916070;29;20062;-44
2022/07/21 12:46:33;;;;;;;5.10;2.40;;;;;;;;;;4915684;29;20377;-44
2022/07/21 12:49:12;;;;;;;3.72;1.90;;;;;;;;;;4915600;29;20032;-45
2022/07/21 12:51:38;;;;;;;2.80;2.30;;;;;;;;;;4915866;29;20035;-44
2022/07/21 12:54:04;;;;;;;4.03;2.28;;;;;;;;;;4915615;29;20477;-47
2022/07/21 12:56:31;;;;;;;5.32;2.53;;;;;;;;;;4915564;29;20034;-44
2022/07/21 12:58:58;;;;;;;5.00;2.50;;;;;;;;;;4898644;29;20446;-46
2022/07/21 13:01:25;;;;;;;3.58;2.10;;;;;;;;;;4915548;29;20032;-45
2022/07/21 13:03:52;;;;;;;4.18;2.05;;;;;;;;;;4916695;29;20038;-45
2022/07/21 13:06:17;;;;;;;5.05;2.58;;;;;;;;;;4918712;29;20036;-46
2022/07/21 13:08:45;;;;;;;3.75;2.40;;;;;;;;;;4919269;29;20024;-44
2022/07/21 13:11:14;;;;;;;10.93;2.25;;;;;;;;;;4918611;29;20044;-42
2022/07/21 13:13:40;;;;;;;5.10;2.60;;;;;;;;;;4918870;29;20036;-47
2022/07/21 13:16:07;;;;;;;5.30;2.25;;;;;;;;;;4919137;29;20110;-47
2022/07/21 13:18:32;;;;;;;6.53;2.20;;;;;;;;;;4918764;29;20087;-47
2022/07/21 13:20:58;;;;;;;5.10;2.58;;;;;;;;;;4918712;29;20028;-45
2022/07/21 13:23:24;;;;;;;12.93;2.90;;;;;;;;;;4919051;29;20115;-44
2022/07/21 13:25:50;;;;;;;4.43;2.53;;;;;;;;;;4918669;29;20028;-46
2022/07/21 13:28:16;;;;;;;3.97;2.53;;;;;;;;;;4918586;29;20039;-47
2022/07/21 13:30:44;;;;;;;3.50;2.50;;;;;;;;;;4918876;29;20043;-48
2022/07/21 13:33:10;;;;;;;2.65;2.25;;;;;;;;;;4917220;29;20499;-44
2022/07/21 13:35:35;;;;;;;6.57;2.15;;;;;;;;;;4918428;29;20028;-45
2022/07/21 13:38:01;;;;;;;4.30;2.00;;;;;;;;;;4918056;29;20083;-43
2022/07/21 13:40:27;;;;;;;3.95;2.25;;;;;;;;;;4918443;29;20184;-46
2022/07/21 13:42:53;;;;;;;4.72;2.30;;;;;;;;;;4918599;29;20046;-45
2022/07/21 13:45:19;;;;;;;6.45;2.22;;;;;;;;;;4918322;29;20076;-43
2022/07/21 13:47:45;;;;;;;3.30;2.22;;;;;;;;;;4918251;29;20096;-45
2022/07/21 13:50:10;;;;;;;5.60;2.70;;;;;;;;;;4918046;29;20670;-47
2022/07/21 13:52:38;;;;;;;3.30;2.30;;;;;;;;;;4918290;29;20473;-47
2022/07/21 13:55:04;;;;;;;4.30;2.40;;;;;;;;;;4918332;29;20036;-46
2022/07/21 13:57:30;;;;;;;5.32;2.80;;;;;;;;;;4917428;29;20079;-44
2022/07/21 13:59:55;;;;;;;4.03;2.20;;;;;;;;;;4916485;29;20052;-44
2022/07/21 14:02:21;;;;;;;4.43;2.88;;;;;;;;;;4916829;29;20028;-44
2022/07/21 14:04:48;;;;;;;3.08;2.40;;;;;;;;;;4916286;29;20032;-45
2022/07/21 14:07:14;;;;;;;6.90;2.42;;;;;;;;;;4916752;29;20054;-47
2022/07/21 14:09:43;;;;;;;5.30;2.67;;;;;;;;;;4916521;29;20380;-46
2022/07/21 14:12:10;;;;;;;2.00;1.90;;;;;;;;;;4916292;29;20118;-48
2022/07/21 14:14:36;;;;;;;3.88;2.65;;;;;;;;;;4915659;29;20028;-45
2022/07/21 14:17:02;;;;;;;3.78;2.38;;;;;;;;;;4916493;29;20073;-47
2022/07/21 14:19:27;;;;;;;5.07;2.60;;;;;;;;;;4916145;29;20489;-44
2022/07/21 14:21:53;;;;;;;3.85;2.42;;;;;;;;;;4916001;29;20071;-45
2022/07/21 14:27:04;;;;;;;3.25;2.15;;;;;;;;;;4915296;29;20042;-48
2022/07/21 14:29:30;;;;;;;2.80;2.00;;;;;;;;;;4915991;29;20036;-44
2022/07/21 14:31:56;;;;;;;7.43;2.60;;;;;;;;;;4916017;29;20047;-42
2022/07/21 14:34:21;;;;;;;5.28;2.20;;;;;;;;;;4916295;29;20028;-48
2022/07/21 14:36:47;;;;;;;2.97;2.10;;;;;;;;;;4916096;29;20024;-47
2022/07/21 14:39:14;;;;;;;3.03;2.63;;;;;;;;;;4915990;29;20036;-47
2022/07/21 14:41:39;;;;;;;5.50;2.40;;;;;;;;;;4915972;29;20111;-49
2022/07/21 14:44:05;;;;;;;6.50;2.90;;;;;;;;;;4915999;29;20588;-47
2022/07/21 14:46:30;;;;;;;6.82;2.40;;;;;;;;;;4915497;29;20107;-44